Time;durP1;ratioP1;P1;durP2;ratioP2;P2;SDS_P1;SDS_P2;PMS_P1;PMS_P2;Temp;Humidity;BMP_temperature;BMP_pressure;BME280_temperature;BME280_humidity;BME280_pressure;Samples;Min_cycle;Max_cycle;Signal;HPM_P1;HPM_P2
2022/12/16 00:01:08;;;;;;;;;;;;;;;;;;5136753;27;19919;-59
2022/12/16 00:03:34;;;;;;;;;;;;;;;;;;5142276;27;20226;-58
2022/12/16 00:06:02;;;;;;;;;;;;;;;;;;5132717;27;19919;-59
2022/12/16 00:08:28;;;;;;;;;;;;;;;;;;5137461;27;19990;-59
2022/12/16 00:10:54;;;;;;;;;;;;;;;;;;5141017;27;20373;-59
2022/12/16 00:13:20;;;;;;;;;;;;;;;;;;5148554;27;19919;-58
2022/12/16 00:15:48;;;;;;;;;;;;;;;;;;5137964;27;19919;-59
2022/12/16 00:18:14;;;;;;;;;;;;;;;;;;5138246;27;19976;-59
2022/12/16 00:20:40;;;;;;;;;;;;;;;;;;5135393;27;19931;-58
2022/12/16 00:23:06;;;;;;;;;;;;;;;;;;5143158;27;19919;-58
2022/12/16 00:25:31;;;;;;;;;;;;;;;;;;5141592;27;19930;-59
2022/12/16 00:27:57;;;;;;;;;;;;;;;;;;5135675;27;20286;-59
2022/12/16 00:30:23;;;;;;;;;;;;;;;;;;5140622;27;19919;-59
2022/12/16 00:32:49;;;;;;;;;;;;;;;;;;5137451;27;19988;-58
2022/12/16 00:35:15;;;;;;;;;;;;;;;;;;5127362;27;20406;-59
2022/12/16 00:37:41;;;;;;;;;;;;;;;;;;5127971;27;19923;-59
2022/12/16 00:40:07;;;;;;;;;;;;;;;;;;5132685;27;19923;-59
2022/12/16 00:42:33;;;;;;;;;;;;;;;;;;5136507;27;19918;-59
2022/12/16 00:44:59;;;;;;;;;;;;;;;;;;5134672;27;19926;-59
2022/12/16 00:47:24;;;;;;;;;;;;;;;;;;5133502;27;19923;-58
2022/12/16 00:49:50;;;;;;;;;;;;;;;;;;5136792;27;19919;-58
2022/12/16 00:52:16;;;;;;;;;;;;;;;;;;5133195;27;19945;-58
2022/12/16 00:54:42;;;;;;;;;;;;;;;;;;5136536;27;19926;-59
2022/12/16 00:57:08;;;;;;;;;;;;;;;;;;5135179;27;19919;-58
2022/12/16 00:59:34;;;;;;;;;;;;;;;;;;5127038;27;20335;-58
2022/12/16 01:02:00;;;;;;;;;;;;;;;;;;5127749;27;19919;-58
2022/12/16 01:04:26;;;;;;;6.65;2.72;;;;;;;;;;5131726;27;19919;-59
2022/12/16 01:06:53;;;;;;;2.67;2.05;;;;;;;;;;5138811;27;20039;-59
2022/12/16 01:09:19;;;;;;;2.05;1.85;;;;;;;;;;5131118;27;20070;-59
2022/12/16 01:11:45;;;;;;;2.88;2.00;;;;;;;;;;5131167;27;20050;-58
2022/12/16 01:14:11;;;;;;;2.95;2.30;;;;;;;;;;5126746;27;20043;-59
2022/12/16 01:16:37;;;;;;;2.95;2.10;;;;;;;;;;5128161;27;20104;-59
2022/12/16 01:19:03;;;;;;;3.22;1.95;;;;;;;;;;5134634;27;20460;-59
2022/12/16 01:21:29;;;;;;;2.90;2.05;;;;;;;;;;5126827;27;20560;-59
2022/12/16 01:23:55;;;;;;;2.40;2.20;;;;;;;;;;5132269;27;20497;-59
2022/12/16 01:26:21;;;;;;;2.30;1.52;;;;;;;;;;5131395;27;20086;-59
2022/12/16 01:28:48;;;;;;;2.65;2.13;;;;;;;;;;5126914;27;20057;-58
2022/12/16 01:31:15;;;;;;;1.63;1.52;;;;;;;;;;5125976;27;20127;-59
2022/12/16 01:33:41;;;;;;;3.35;1.40;;;;;;;;;;5130596;27;20060;-58
2022/12/16 01:36:07;;;;;;;1.42;1.20;;;;;;;;;;5140287;27;20038;-59
2022/12/16 01:38:34;;;;;;;2.05;1.67;;;;;;;;;;5132430;27;20059;-59
2022/12/16 01:41:00;;;;;;;2.67;1.67;;;;;;;;;;5141226;27;20431;-60
2022/12/16 01:43:28;;;;;;;1.13;1.02;;;;;;;;;;5131629;27;20051;-60
2022/12/16 01:45:58;;;;;;;1.13;1.02;;;;;;;;;;5127516;27;20092;-60
2022/12/16 01:48:42;;;;;;;1.05;0.90;;;;;;;;;;5133248;27;20095;-60
2022/12/16 01:51:15;;;;;;;0.98;0.88;;;;;;;;;;5140048;27;20473;-60
2022/12/16 01:53:42;;;;;;;0.80;0.52;;;;;;;;;;5132198;27;20093;-60
2022/12/16 01:56:09;;;;;;;1.33;1.23;;;;;;;;;;5131430;27;20677;-60
2022/12/16 01:58:38;;;;;;;2.92;1.10;;;;;;;;;;5126008;27;20485;-59
2022/12/16 02:01:04;;;;;;;1.80;0.90;;;;;;;;;;5135326;27;20065;-59
2022/12/16 02:03:33;;;;;;;1.27;1.17;;;;;;;;;;5125776;27;20042;-59
2022/12/16 02:05:59;;;;;;;2.35;1.52;;;;;;;;;;5133311;27;20259;-59
2022/12/16 02:08:25;;;;;;;2.35;1.73;;;;;;;;;;5125973;27;20055;-60
2022/12/16 02:11:00;;;;;;;1.45;1.30;;;;;;;;;;5125659;27;20691;-59
2022/12/16 02:13:35;;;;;;;1.95;1.73;;;;;;;;;;5125957;27;20050;-59
2022/12/16 02:16:20;;;;;;;3.58;2.13;;;;;;;;;;5129752;27;20527;-59
2022/12/16 02:18:59;;;;;;;2.90;2.42;;;;;;;;;;5130852;27;20035;-60
2022/12/16 02:21:47;;;;;;;4.13;2.80;;;;;;;;;;5131398;27;20401;-60
2022/12/16 02:24:19;;;;;;;5.13;2.83;;;;;;;;;;5131194;27;20043;-58
2022/12/16 02:26:45;;;;;;;3.78;3.20;;;;;;;;;;5129008;27;20040;-58
2022/12/16 02:29:14;;;;;;;4.30;3.42;;;;;;;;;;5131860;27;20047;-58
2022/12/16 02:31:49;;;;;;;5.53;3.80;;;;;;;;;;5133388;27;20118;-58
2022/12/16 02:34:29;;;;;;;4.25;3.38;;;;;;;;;;5128985;27;20557;-58
2022/12/16 02:37:04;;;;;;;2.83;2.50;;;;;;;;;;5134307;27;20039;-58
2022/12/16 02:39:30;;;;;;;3.28;2.97;;;;;;;;;;5126558;27;20039;-58
2022/12/16 02:42:00;;;;;;;3.13;2.70;;;;;;;;;;5126843;27;20446;-58
2022/12/16 02:44:33;;;;;;;2.08;1.98;;;;;;;;;;5129671;27;20043;-58
2022/12/16 02:46:59;;;;;;;2.23;2.00;;;;;;;;;;5124815;27;21141;-58
2022/12/16 02:49:25;;;;;;;2.42;2.22;;;;;;;;;;5125289;27;20006;-58
2022/12/16 02:51:51;;;;;;;2.20;2.00;;;;;;;;;;5115673;27;20364;-59
2022/12/16 02:54:17;;;;;;;2.30;1.88;;;;;;;;;;5124305;27;20043;-58
2022/12/16 02:56:59;;;;;;;2.28;1.88;;;;;;;;;;5125032;27;20039;-59
2022/12/16 02:59:25;;;;;;;1.52;1.40;;;;;;;;;;5137934;27;20038;-58
2022/12/16 03:02:11;;;;;;;1.73;1.50;;;;;;;;;;5125183;27;20035;-58
2022/12/16 03:04:37;;;;;;;1.50;1.40;;;;;;;;;;5129464;27;20050;-58
2022/12/16 03:07:04;;;;;;;2.75;1.40;;;;;;;;;;5125214;27;20485;-58
2022/12/16 03:09:33;;;;;;;1.40;1.30;;;;;;;;;;5124182;27;20416;-59
2022/12/16 03:12:01;;;;;;;1.95;1.40;;;;;;;;;;5133008;27;20050;-58
2022/12/16 03:14:30;;;;;;;2.45;1.80;;;;;;;;;;5131013;27;20051;-58
2022/12/16 03:16:56;;;;;;;2.20;1.75;;;;;;;;;;5136115;27;20046;-58
2022/12/16 03:19:23;;;;;;;1.77;1.38;;;;;;;;;;5124991;27;20055;-58
2022/12/16 03:22:19;;;;;;;1.77;1.60;;;;;;;;;;5128721;27;20040;-58
2022/12/16 03:24:45;;;;;;;1.50;1.40;;;;;;;;;;5115441;27;20055;-58
2022/12/16 03:27:10;;;;;;;;;;;;;;;;;;5127419;27;20027;-58
2022/12/16 03:29:56;;;;;;;2.80;2.55;;;;;;;;;;5137424;27;19922;-58
2022/12/16 03:32:22;;;;;;;3.08;2.50;;;;;;;;;;5133038;27;20511;-58
2022/12/16 03:34:51;;;;;;;3.10;2.13;;;;;;;;;;5136967;27;20089;-58
2022/12/16 03:37:19;;;;;;;1.98;1.80;;;;;;;;;;5134751;27;20512;-58
2022/12/16 03:39:50;;;;;;;2.50;2.30;;;;;;;;;;5140945;27;20146;-59
2022/12/16 03:42:16;;;;;;;3.30;3.05;;;;;;;;;;5133445;27;20493;-58
2022/12/16 03:44:45;;;;;;;7.38;5.43;;;;;;;;;;5133321;27;20409;-59
2022/12/16 03:47:12;;;;;;;10.07;7.97;;;;;;;;;;5142801;27;20074;-59
2022/12/16 03:49:38;;;;;;;12.07;9.07;;;;;;;;;;5141869;27;20039;-59
2022/12/16 03:52:04;;;;;;;14.07;10.60;;;;;;;;;;5143649;27;20481;-59
2022/12/16 03:54:30;;;;;;;15.65;11.10;;;;;;;;;;5142206;27;20454;-59
2022/12/16 03:56:56;;;;;;;14.38;11.57;;;;;;;;;;5140153;27;20096;-59
2022/12/16 03:59:22;;;;;;;;;;;;;;;;;;5140070;27;19928;-59
2022/12/16 04:01:48;;;;;;;;;;;;;;;;;;5140787;27;19958;-58
2022/12/16 04:04:15;;;;;;;18.75;14.82;;;;;;;;;;5139827;27;20014;-59
2022/12/16 04:06:41;;;;;;;20.38;15.52;;;;;;;;;;5136266;27;20039;-59
2022/12/16 04:09:07;;;;;;;23.85;16.55;;;;;;;;;;5143202;27;20059;-59
2022/12/16 04:25:16;;;;;;;;;;;;;;;;;;5142041;27;19966;-60
2022/12/16 04:27:51;;;;;;;;;;;;;;;;;;5139141;27;19979;-60
2022/12/16 04:30:19;;;;;;;;;;;;;;;;;;5137342;27;19923;-59
